Time;durP1;ratioP1;P1;durP2;ratioP2;P2;SDS_P1;SDS_P2;PMS_P1;PMS_P2;Temp;Humidity;BMP_temperature;BMP_pressure;BME280_temperature;BME280_humidity;BME280_pressure;Samples;Min_cycle;Max_cycle;Signal;HPM_P1;HPM_P2
2023/10/27 00:00:13;;;;;;;42.17;24.70;;;;;;;12.53;100.00;98519.73;1761787;81;21019;-68
2023/10/27 00:02:41;;;;;;;48.95;26.77;;;;;;;12.55;100.00;98525.27;1761536;81;21027;-68
2023/10/27 00:05:10;;;;;;;43.68;25.68;;;;;;;12.57;100.00;98525.00;1761798;81;21023;-67
2023/10/27 00:07:38;;;;;;;44.25;26.73;;;;;;;12.61;100.00;98523.41;1761725;81;21030;-67
2023/10/27 00:10:08;;;;;;;47.43;26.85;;;;;;;12.62;100.00;98526.44;1761666;81;21066;-68
2023/10/27 00:12:38;;;;;;;49.35;27.52;;;;;;;12.61;100.00;98521.48;1761491;81;21054;-68
2023/10/27 00:15:08;;;;;;;40.28;24.45;;;;;;;12.59;100.00;98517.34;1761531;81;21058;-67
2023/10/27 00:17:38;;;;;;;36.93;20.77;;;;;;;12.59;100.00;98510.47;1761749;81;21091;-68
2023/10/27 00:20:09;;;;;;;34.53;19.75;;;;;;;12.60;100.00;98514.87;1761611;80;21085;-68
2023/10/27 00:22:38;;;;;;;32.85;20.15;;;;;;;12.61;100.00;98511.05;1761774;81;21121;-68
2023/10/27 00:25:08;;;;;;;37.05;21.20;;;;;;;12.62;100.00;98527.81;1761701;80;21489;-68
2023/10/27 00:27:37;;;;;;;36.40;21.52;;;;;;;12.62;100.00;98529.19;1761479;81;21031;-68
2023/10/27 00:30:08;;;;;;;31.25;18.98;;;;;;;12.63;100.00;98527.55;1761727;81;21050;-68
2023/10/27 00:32:37;;;;;;;36.23;20.23;;;;;;;12.64;100.00;98527.84;1761536;80;21450;-68
2023/10/27 00:35:07;;;;;;;31.05;19.40;;;;;;;12.67;100.00;98523.75;1761705;81;21028;-68
2023/10/27 00:37:37;;;;;;;43.73;24.92;;;;;;;12.68;100.00;98524.03;1761581;81;21031;-68
2023/10/27 00:40:07;;;;;;;37.28;20.55;;;;;;;12.69;100.00;98519.66;1761757;81;21030;-67
2023/10/27 00:42:35;;;;;;;35.95;20.05;;;;;;;12.69;100.00;98521.03;1761574;81;21050;-68
2023/10/27 00:45:05;;;;;;;32.85;18.27;;;;;;;12.69;100.00;98516.08;1761670;81;21047;-69
2023/10/27 00:47:34;;;;;;;35.40;19.10;;;;;;;12.70;100.00;98512.24;1761788;80;21031;-70
2023/10/27 00:50:04;;;;;;;35.55;19.65;;;;;;;12.69;100.00;98513.33;1761573;81;21007;-69
2023/10/27 00:52:34;;;;;;;38.95;20.32;;;;;;;12.69;100.00;98511.95;1761533;80;21043;-68
2023/10/27 00:55:05;;;;;;;35.25;19.52;;;;;;;12.67;100.00;98504.52;1761679;81;21395;-69
2023/10/27 00:57:34;;;;;;;32.45;18.45;;;;;;;12.64;100.00;98505.86;1761503;81;21023;-69
2023/10/27 01:00:07;;;;;;;32.30;18.30;;;;;;;12.63;100.00;98512.44;1761567;80;21026;-69
2023/10/27 01:02:36;;;;;;;32.50;17.48;;;;;;;12.62;100.00;98512.70;1761899;81;21022;-68
2023/10/27 01:05:08;;;;;;;31.10;17.23;;;;;;;12.61;100.00;98512.41;1761678;81;21035;-70
2023/10/27 01:07:40;;;;;;;31.37;17.17;;;;;;;12.58;100.00;98517.88;1761735;81;21054;-68
2023/10/27 01:10:09;;;;;;;27.70;16.52;;;;;;;12.58;100.00;98513.77;1761742;81;21074;-69
2023/10/27 01:12:38;;;;;;;30.52;18.05;;;;;;;12.56;100.00;98518.68;1739569;81;21078;-69
2023/10/27 01:15:07;;;;;;;31.55;18.55;;;;;;;12.54;100.00;98517.28;1773167;79;21074;-69
2023/10/27 01:17:35;;;;;;;48.78;28.27;;;;;;;12.53;100.00;98514.24;1782770;80;21463;-70
2023/10/27 01:20:06;;;;;;;39.40;23.42;;;;;;;12.53;100.00;98501.34;1782825;80;21070;-68
2023/10/27 01:22:48;;;;;;;31.85;20.25;;;;;;;12.53;100.00;98517.82;1760940;80;21066;-69
2023/10/27 01:25:18;;;;;;;29.12;18.32;;;;;;;12.53;100.00;98515.61;1782694;80;21486;-68
2023/10/27 01:27:47;;;;;;;40.10;22.55;;;;;;;12.53;100.00;98517.82;1782700;80;21062;-69
2023/10/27 01:30:16;;;;;;;33.45;20.08;;;;;;;12.52;100.00;98516.70;1782694;80;21446;-68
2023/10/27 01:32:45;;;;;;;33.28;20.00;;;;;;;12.49;100.00;98521.34;1782854;80;21030;-70
2023/10/27 01:35:15;;;;;;;45.60;28.35;;;;;;;12.47;100.00;98524.34;1782766;80;21070;-70
2023/10/27 01:37:44;;;;;;;39.85;24.40;;;;;;;12.46;100.00;98524.59;1782850;80;20975;-69
2023/10/27 01:40:13;;;;;;;45.17;26.95;;;;;;;12.46;100.00;98524.59;1782832;80;21034;-70
2023/10/27 01:42:42;;;;;;;71.25;42.60;;;;;;;12.47;100.00;98526.25;1782548;80;21062;-68
2023/10/27 01:45:13;;;;;;;78.57;46.23;;;;;;;12.45;100.00;98531.17;1782747;80;21011;-69
2023/10/27 01:47:41;;;;;;;89.80;54.08;;;;;;;12.46;100.00;98530.09;1782681;80;21062;-69
2023/10/27 01:50:10;;;;;;;78.75;49.60;;;;;;;12.45;100.00;98532.00;1783001;80;21043;-69
2023/10/27 01:52:39;;;;;;;65.57;37.30;;;;;;;12.44;100.00;98523.48;1782860;80;21061;-70
2023/10/27 01:55:11;;;;;;;61.58;36.93;;;;;;;12.43;100.00;98519.61;1782961;80;21478;-67
2023/10/27 01:57:39;;;;;;;66.22;39.30;;;;;;;12.42;100.00;98520.16;1782751;80;21104;-69
2023/10/27 02:00:09;;;;;;;87.15;52.00;;;;;;;12.42;100.00;98528.94;1782874;80;21007;-68
2023/10/27 02:02:41;;;;;;;127.45;77.30;;;;;;;12.43;100.00;98531.43;1782627;80;21114;-70
2023/10/27 02:05:10;;;;;;;109.37;62.53;;;;;;;12.42;100.00;98532.52;1782733;80;21020;-69
2023/10/27 02:07:38;;;;;;;73.72;44.50;;;;;;;12.41;100.00;98534.14;1782589;80;21082;-70
2023/10/27 02:10:08;;;;;;;60.38;38.23;;;;;;;12.42;100.00;98534.43;1782687;80;21023;-69
2023/10/27 02:12:36;;;;;;;51.20;32.83;;;;;;;12.38;100.00;98529.45;1782550;80;21051;-69
2023/10/27 02:15:12;;;;;;;54.33;32.88;;;;;;;12.37;100.00;98532.45;1773672;80;21117;-70
2023/10/27 02:17:40;;;;;;;44.73;30.35;;;;;;;12.35;100.00;98523.61;1761686;81;21015;-68
2023/10/27 02:20:10;;;;;;;31.10;21.23;;;;;;;12.32;100.00;98531.81;1761480;81;21030;-70
2023/10/27 02:22:40;;;;;;;29.12;17.02;;;;;;;12.29;100.00;98518.59;1761540;81;21007;-70
2023/10/27 02:25:09;;;;;;;32.75;19.10;;;;;;;12.27;100.00;98523.50;1761504;80;21049;-69
2023/10/27 02:27:40;;;;;;;51.48;32.60;;;;;;;12.27;100.00;98517.19;1761623;81;21031;-69
2023/10/27 02:30:09;;;;;;;44.95;29.50;;;;;;;12.27;100.00;98513.90;1761646;81;21018;-69
2023/10/27 02:32:38;;;;;;;29.60;19.15;;;;;;;12.24;100.00;98517.16;1761572;81;21011;-68
2023/10/27 02:35:08;;;;;;;22.75;14.25;;;;;;;12.20;100.00;98519.29;1761468;81;21047;-69
2023/10/27 02:37:36;;;;;;;21.42;13.15;;;;;;;12.20;100.00;98526.98;1761604;81;21042;-70
2023/10/27 02:40:07;;;;;;;17.37;11.18;;;;;;;12.19;100.00;98527.23;1761581;81;21024;-69
2023/10/27 02:42:38;;;;;;;20.40;12.20;;;;;;;12.18;100.00;98533.81;1761470;81;21485;-70
2023/10/27 02:45:08;;;;;;;16.95;11.25;;;;;;;12.16;100.00;98542.30;1761410;81;21049;-70
2023/10/27 02:47:36;;;;;;;19.48;12.45;;;;;;;12.15;100.00;98543.38;1761418;81;21078;-70
2023/10/27 02:50:06;;;;;;;19.98;11.73;;;;;;;12.15;100.00;98554.37;1761776;81;21463;-70
2023/10/27 02:52:35;;;;;;;20.43;12.73;;;;;;;12.13;100.00;98557.91;1761666;81;21454;-69
2023/10/27 02:55:05;;;;;;;19.60;11.35;;;;;;;12.13;100.00;98564.77;1761709;80;21074;-70
2023/10/27 02:57:33;;;;;;;17.25;11.70;;;;;;;12.12;100.00;98562.27;1761453;81;21050;-69
2023/10/27 03:00:06;;;;;;;16.30;11.10;;;;;;;12.11;100.00;98552.37;1761618;81;21066;-71
2023/10/27 03:02:35;;;;;;;18.80;11.05;;;;;;;12.10;100.00;98558.41;1761422;81;21042;-71
2023/10/27 03:05:05;;;;;;;15.88;11.33;;;;;;;12.09;100.00;98551.27;1761445;80;21502;-69
2023/10/27 03:07:37;;;;;;;18.90;11.85;;;;;;;12.09;100.00;98551.27;1761589;81;21038;-70
2023/10/27 03:10:06;;;;;;;18.57;11.80;;;;;;;12.08;100.00;98546.86;1761550;81;21050;-70
2023/10/27 03:12:34;;;;;;;16.50;10.85;;;;;;;12.06;100.00;98543.53;1761411;80;21504;-69
2023/10/27 03:15:03;;;;;;;15.43;11.25;;;;;;;12.05;100.00;98550.94;1766888;80;21524;-70
2023/10/27 03:17:32;;;;;;;16.97;11.12;;;;;;;12.02;100.00;98543.75;1782823;80;21015;-70
2023/10/27 03:20:04;;;;;;;15.53;10.75;;;;;;;11.99;100.00;98545.63;1782975;80;20995;-71
2023/10/27 03:22:33;;;;;;;16.85;10.30;;;;;;;11.97;100.00;98551.91;1782999;80;21474;-70
2023/10/27 03:25:03;;;;;;;18.65;12.40;;;;;;;11.95;100.00;98551.33;1782966;80;21014;-70
2023/10/27 03:27:32;;;;;;;20.82;14.40;;;;;;;11.93;100.00;98548.00;1782974;80;21039;-70
2023/10/27 03:30:01;;;;;;;17.32;11.60;;;;;;;11.92;100.00;98545.80;1782772;80;21469;-70
2023/10/27 03:32:30;;;;;;;18.92;11.70;;;;;;;11.90;100.00;98548.51;1782766;80;21026;-70
2023/10/27 03:35:00;;;;;;;16.40;11.80;;;;;;;11.88;100.00;98542.44;1782973;80;21074;-72
2023/10/27 03:37:29;;;;;;;19.60;13.32;;;;;;;11.89;100.00;98549.59;1782898;80;21501;-70
2023/10/27 03:39:58;;;;;;;18.17;13.05;;;;;;;11.88;100.00;98550.67;1783289;80;21070;-70
2023/10/27 03:42:28;;;;;;;17.27;10.60;;;;;;;11.85;100.00;98553.37;1782859;80;21082;-70
2023/10/27 03:44:57;;;;;;;13.13;9.78;;;;;;;11.85;100.00;98548.43;1759941;80;21110;-71
2023/10/27 03:47:26;;;;;;;20.85;12.28;;;;;;;11.83;100.00;98543.73;1782669;80;21043;-69
2023/10/27 03:49:55;;;;;;;17.27;10.78;;;;;;;11.80;100.00;98544.23;1782808;80;20998;-71
2023/10/27 03:52:25;;;;;;;20.30;14.30;;;;;;;11.78;100.00;98552.72;1782948;80;21043;-71
2023/10/27 03:54:57;;;;;;;43.28;29.65;;;;;;;11.77;100.00;98550.20;1782764;80;21019;-71
2023/10/27 03:57:27;;;;;;;64.45;42.17;;;;;;;11.74;100.00;98552.36;1783109;80;20997;-71
2023/10/27 03:59:57;;;;;;;58.80;40.92;;;;;;;11.77;100.00;98552.94;1782804;80;21066;-71
2023/10/27 04:02:28;;;;;;;45.58;30.88;;;;;;;11.73;100.00;98545.21;1760024;80;21174;-72
2023/10/27 04:04:56;;;;;;;43.15;29.82;;;;;;;11.70;100.00;98539.36;1782805;80;21038;-70
2023/10/27 04:07:25;;;;;;;40.88;27.05;;;;;;;11.69;100.00;98540.45;1782914;80;21074;-71
2023/10/27 04:09:53;;;;;;;49.20;37.33;;;;;;;11.67;100.00;98542.06;1782621;80;21019;-71
2023/10/27 04:12:21;;;;;;;48.33;35.23;;;;;;;11.66;100.00;98547.80;1782719;80;21050;-70
2023/10/27 04:14:49;;;;;;;60.60;42.10;;;;;;;11.65;100.00;98545.60;1782571;80;21066;-71
2023/10/27 04:17:18;;;;;;;49.35;31.42;;;;;;;11.65;100.00;98550.25;1783169;80;21019;-71
2023/10/27 04:19:46;;;;;;;50.12;34.43;;;;;;;11.63;100.00;98546.93;1782744;80;21093;-70
2023/10/27 04:22:15;;;;;;;65.47;44.63;;;;;;;11.62;100.00;98541.16;1782982;80;20995;-70
2023/10/27 04:24:44;;;;;;;69.45;47.10;;;;;;;11.63;100.00;98545.56;1782869;80;21019;-73
2023/10/27 04:27:13;;;;;;;60.92;42.23;;;;;;;11.61;100.00;98549.09;1782673;80;21058;-71
2023/10/27 04:29:42;;;;;;;61.18;42.85;;;;;;;11.60;100.00;98545.52;1782832;80;21549;-70
2023/10/27 04:32:15;;;;;;;65.87;44.03;;;;;;;11.58;100.00;98551.80;1783037;80;21027;-71
2023/10/27 04:34:44;;;;;;;45.23;33.00;;;;;;;11.57;100.00;98558.36;1782676;80;21120;-78
2023/10/27 04:37:12;;;;;;;36.23;26.40;;;;;;;11.56;100.00;98552.58;1782906;80;21027;-71
2023/10/27 04:39:41;;;;;;;26.90;18.00;;;;;;;11.57;100.00;98556.98;1782907;80;21427;-70
2023/10/27 04:42:10;;;;;;;20.77;14.20;;;;;;;11.57;100.00;98558.91;1782951;80;21019;-70
2023/10/27 04:44:39;;;;;;;22.05;15.48;;;;;;;11.55;100.00;98557.78;1782897;80;21034;-70
2023/10/27 04:47:08;;;;;;;30.80;21.55;;;;;;;11.54;100.00;98563.52;1783066;80;21019;-69
2023/10/27 04:49:37;;;;;;;53.02;40.20;;;;;;;11.53;100.00;98560.48;1782793;80;21042;-70
2023/10/27 04:52:06;;;;;;;47.75;35.15;;;;;;;11.52;100.00;98561.02;1782711;80;21031;-70
2023/10/27 04:54:36;;;;;;;55.45;39.67;;;;;;;11.51;100.00;98570.33;1783189;80;20999;-72
2023/10/27 04:57:06;;;;;;;79.50;54.88;;;;;;;11.50;100.00;98565.92;1782913;80;20992;-72
2023/10/27 04:59:35;;;;;;;79.80;59.40;;;;;;;11.48;100.00;98559.86;1782722;80;20995;-71
2023/10/27 05:02:06;;;;;;;83.00;57.50;;;;;;;11.49;100.00;98564.80;1782953;80;21015;-70
2023/10/27 05:04:34;;;;;;;78.55;53.48;;;;;;;11.49;100.00;98556.03;1782746;80;21002;-72
2023/10/27 05:07:05;;;;;;;72.32;48.05;;;;;;;11.52;100.00;98561.02;1782882;80;21047;-71
2023/10/27 05:09:34;;;;;;;51.68;37.73;;;;;;;11.53;100.00;98557.73;1782685;80;21082;-72
2023/10/27 05:12:03;;;;;;;39.00;27.30;;;;;;;11.51;100.00;98561.27;1782861;80;21010;-71
2023/10/27 05:14:34;;;;;;;36.75;26.35;;;;;;;11.49;100.00;98571.12;1782724;80;21050;-74
2023/10/27 05:17:03;;;;;;;29.52;20.30;;;;;;;11.47;100.00;98573.81;1765281;80;21351;-71
2023/10/27 05:19:33;;;;;;;28.35;20.85;;;;;;;11.46;100.00;98574.89;1761635;80;21142;-71
2023/10/27 05:22:06;;;;;;;25.72;17.37;;;;;;;11.43;100.00;98573.48;1761428;81;21027;-73
2023/10/27 05:24:35;;;;;;;26.90;18.60;;;;;;;11.46;100.00;98572.98;1761264;81;21089;-70
2023/10/27 05:27:03;;;;;;;33.63;23.65;;;;;;;11.48;100.00;98570.82;1761573;81;21042;-71
2023/10/27 05:29:32;;;;;;;46.63;29.18;;;;;;;11.47;100.00;98563.68;1761299;81;21066;-70
2023/10/27 05:32:01;;;;;;;44.80;33.15;;;;;;;11.50;100.00;98578.80;1761334;81;21503;-72
2023/10/27 05:34:29;;;;;;;48.65;34.63;;;;;;;11.50;100.00;98576.06;1761418;81;21058;-71
2023/10/27 05:36:59;;;;;;;31.40;19.57;;;;;;;11.49;100.00;98587.57;1761467;80;21094;-69
2023/10/27 05:39:28;;;;;;;23.77;15.83;;;;;;;11.48;100.00;98587.28;1716708;81;21034;-71
2023/10/27 05:41:57;;;;;;;21.30;14.38;;;;;;;11.45;100.00;98590.52;1739854;81;21461;-71
2023/10/27 05:44:25;;;;;;;18.37;12.75;;;;;;;11.41;100.00;98594.30;1740754;81;21018;-72
2023/10/27 05:46:53;;;;;;;21.50;11.68;;;;;;;11.40;100.00;98595.91;1761865;81;21054;-71
2023/10/27 05:49:22;;;;;;;21.60;12.90;;;;;;;11.42;100.00;98597.87;1761633;81;21023;-72
2023/10/27 05:51:51;;;;;;;17.73;11.65;;;;;;;11.47;100.00;98599.33;1761644;81;21097;-72
2023/10/27 05:54:20;;;;;;;18.98;11.12;;;;;;;11.52;100.00;98602.16;1761691;81;21054;-71
2023/10/27 05:56:49;;;;;;;16.57;11.97;;;;;;;11.55;100.00;98596.17;1761532;80;21094;-71
2023/10/27 05:59:18;;;;;;;21.80;13.72;;;;;;;11.59;100.00;98604.20;1761621;81;21067;-71
2023/10/27 06:01:48;;;;;;;18.00;12.80;;;;;;;11.62;100.00;98604.24;1761624;81;21054;-72
2023/10/27 06:04:19;;;;;;;19.23;11.65;;;;;;;11.64;100.00;98585.08;1758727;81;21055;-71
2023/10/27 06:06:48;;;;;;;19.60;12.82;;;;;;;11.68;100.00;98578.02;1761605;80;21003;-71
2023/10/27 06:09:17;;;;;;;26.35;16.85;;;;;;;11.72;100.00;98588.81;1740657;81;21055;-72
2023/10/27 06:11:46;;;;;;;26.90;15.58;;;;;;;11.76;100.00;98594.64;1761643;81;21062;-71
2023/10/27 06:14:15;;;;;;;21.27;12.85;;;;;;;11.82;100.00;98588.72;1761508;81;21054;-70
2023/10/27 06:16:43;;;;;;;20.75;12.85;;;;;;;11.84;100.00;98579.16;1761435;80;21011;-73
2023/10/27 06:19:12;;;;;;;17.10;11.28;;;;;;;11.91;100.00;98585.30;1761447;81;21011;-72
2023/10/27 06:21:40;;;;;;;23.12;14.10;;;;;;;11.97;100.00;98605.42;1761591;81;21026;-74
2023/10/27 06:24:10;;;;;;;21.15;13.08;;;;;;;12.01;100.00;98603.30;1761409;80;20975;-73
2023/10/27 06:26:38;;;;;;;20.05;13.28;;;;;;;12.07;100.00;98605.58;1740824;81;21019;-71
2023/10/27 06:29:07;;;;;;;24.80;16.90;;;;;;;12.13;100.00;98607.86;1761416;81;21027;-71
2023/10/27 06:31:38;;;;;;;20.27;11.85;;;;;;;12.18;100.00;98599.16;1761356;81;21042;-72
2023/10/27 06:34:06;;;;;;;19.10;11.57;;;;;;;12.23;100.00;98595.66;1761531;81;21039;-72
2023/10/27 06:36:36;;;;;;;19.02;12.15;;;;;;;12.27;100.00;98605.87;1740874;81;21046;-72
2023/10/27 06:39:04;;;;;;;22.93;13.15;;;;;;;12.32;100.00;98603.20;1761549;81;21066;-73
2023/10/27 06:41:33;;;;;;;23.98;14.33;;;;;;;12.41;100.00;98609.67;1761559;81;20994;-73
2023/10/27 06:44:02;;;;;;;21.42;13.95;;;;;;;12.46;100.00;98611.11;1740760;81;21015;-72
2023/10/27 06:46:31;;;;;;;20.97;13.93;;;;;;;12.53;100.00;98622.20;1761384;81;21022;-72
2023/10/27 06:49:00;;;;;;;18.75;12.40;;;;;;;12.58;100.00;98615.41;1761273;81;21110;-72
2023/10/27 06:51:29;;;;;;;20.37;14.38;;;;;;;12.63;100.00;98606.40;1741132;81;21089;-72
2023/10/27 06:53:58;;;;;;;19.73;15.05;;;;;;;12.67;100.00;98607.55;1761705;81;21020;-73
2023/10/27 06:56:28;;;;;;;19.23;12.82;;;;;;;12.72;100.00;98606.24;1761678;81;21042;-71
2023/10/27 06:58:58;;;;;;;19.55;13.85;;;;;;;12.77;100.00;98607.68;1761443;81;21086;-72
2023/10/27 07:01:26;;;;;;;23.32;16.52;;;;;;;12.78;100.00;98608.51;1761566;81;20995;-72
2023/10/27 07:03:56;;;;;;;20.00;15.50;;;;;;;12.83;100.00;98610.78;1761445;81;21058;-71
2023/10/27 07:06:25;;;;;;;24.70;17.37;;;;;;;12.87;100.00;98611.92;1761637;81;21050;-72
2023/10/27 07:08:54;;;;;;;18.25;13.20;;;;;;;12.90;100.00;98610.03;1761764;80;21109;-71
2023/10/27 07:11:23;;;;;;;22.27;13.60;;;;;;;12.95;100.00;98621.09;1717077;81;21059;-72
2023/10/27 07:13:54;;;;;;;19.00;13.22;;;;;;;12.98;100.00;98611.50;1761355;81;21081;-72
2023/10/27 07:16:23;;;;;;;21.33;14.23;;;;;;;13.03;100.00;98619.84;1761476;80;21039;-72
2023/10/27 07:18:52;;;;;;;21.25;13.58;;;;;;;13.10;100.00;98622.39;1761464;81;21449;-72
2023/10/27 07:21:21;;;;;;;22.42;14.10;;;;;;;13.15;100.00;98612.83;1761579;81;21027;-71
2023/10/27 07:23:49;;;;;;;28.17;13.90;;;;;;;13.20;100.00;98611.53;1761718;81;21017;-71
2023/10/27 07:26:18;;;;;;;20.77;12.90;;;;;;;13.26;100.00;98616.83;1739473;81;21019;-72
2023/10/27 07:28:46;;;;;;;23.18;14.70;;;;;;;13.32;100.00;98619.92;1761527;81;21455;-72
2023/10/27 07:31:15;;;;;;;22.10;15.03;;;;;;;13.41;100.00;98620.28;1761561;81;21063;-72
2023/10/27 07:33:44;;;;;;;21.25;15.08;;;;;;;13.55;100.00;98623.45;1761670;81;21030;-72
2023/10/27 07:36:12;;;;;;;20.88;15.72;;;;;;;13.86;100.00;98619.08;1761557;81;21011;-69
2023/10/27 07:38:41;;;;;;;24.02;16.15;;;;;;;14.29;100.00;98624.91;1761753;81;21062;-70
2023/10/27 07:41:10;;;;;;;20.48;14.75;;;;;;;14.78;100.00;98624.70;1761501;81;21073;-71
2023/10/27 07:43:39;;;;;;;19.35;15.18;;;;;;;15.22;100.00;98622.41;1761697;80;21011;-70
2023/10/27 07:46:07;;;;;;;17.05;11.57;;;;;;;15.61;100.00;98626.15;1761721;81;21470;-70
2023/10/27 07:48:36;;;;;;;15.43;10.82;;;;;;;15.98;100.00;98635.56;1761593;81;21478;-71
2023/10/27 07:51:06;;;;;;;18.15;11.22;;;;;;;16.29;100.00;98633.09;1761400;80;21532;-71
2023/10/27 07:53:34;;;;;;;16.70;9.68;;;;;;;16.60;100.00;98634.42;1761538;81;21027;-71
2023/10/27 07:56:05;;;;;;;12.25;8.60;;;;;;;16.96;100.00;98627.73;1754421;80;21083;-73
2023/10/27 07:58:34;;;;;;;12.93;9.63;;;;;;;17.29;100.00;98633.11;1674420;85;21568;-73
2023/10/27 08:01:05;;;;;;;16.67;9.48;;;;;;;17.47;100.00;98639.11;1727313;83;21051;-73
2023/10/27 08:03:38;;;;;;;9.55;7.53;;;;;;;17.65;100.00;98635.70;1693458;82;21093;-71
2023/10/27 08:06:11;;;;;;;13.90;7.12;;;;;;;17.74;100.00;98637.61;1709863;83;21523;-71
2023/10/27 08:08:37;;;;;;;9.30;6.97;;;;;;;17.80;100.00;98641.17;1709984;84;21447;-71
2023/10/27 08:11:06;;;;;;;9.95;6.70;;;;;;;17.83;100.00;98645.30;1663769;86;21074;-72
2023/10/27 08:13:36;;;;;;;9.68;7.25;;;;;;;17.80;100.00;98645.88;1706644;83;20989;-74
2023/10/27 08:16:05;;;;;;;10.43;7.75;;;;;;;17.77;100.00;98645.07;1713946;82;21444;-71
2023/10/27 08:18:34;;;;;;;14.68;8.48;;;;;;;17.73;100.00;98645.65;1731457;83;21095;-72
2023/10/27 08:21:03;;;;;;;10.85;7.87;;;;;;;17.68;100.00;98650.39;1705799;83;21008;-72
2023/10/27 08:23:32;;;;;;;11.40;6.95;;;;;;;17.65;100.00;98646.78;1731347;83;21127;-72
2023/10/27 08:26:01;;;;;;;10.78;7.00;;;;;;;17.61;100.00;98645.14;1731349;83;21028;-71
2023/10/27 08:28:29;;;;;;;11.03;7.35;;;;;;;17.52;100.00;98651.53;1706018;83;21304;-72
2023/10/27 08:30:58;;;;;;;9.33;7.12;;;;;;;17.34;100.00;98652.46;1730159;83;21018;-71
2023/10/27 08:33:26;;;;;;;12.85;7.80;;;;;;;17.17;100.00;98654.76;1675696;86;21090;-72
2023/10/27 08:36:03;;;;;;;15.28;8.25;;;;;;;17.01;100.00;98667.00;1733138;82;21729;-74
2023/10/27 08:38:37;;;;;;;11.15;7.55;;;;;;;16.94;100.00;98662.32;1733135;83;20994;-72
2023/10/27 08:41:05;;;;;;;10.68;6.25;;;;;;;16.89;100.00;98662.30;1732633;81;21026;-73
2023/10/27 08:43:33;;;;;;;10.63;6.65;;;;;;;16.75;100.00;98667.59;1732862;83;21086;-71
2023/10/27 08:46:04;;;;;;;8.65;5.30;;;;;;;16.62;100.00;98679.20;1733099;83;21423;-73
2023/10/27 08:48:33;;;;;;;9.78;4.80;;;;;;;16.52;100.00;98682.81;1675522;86;21038;-70
2023/10/27 08:51:04;;;;;;;7.05;4.60;;;;;;;16.41;96.78;98690.30;1732926;83;21470;-71
2023/10/27 08:53:33;;;;;;;8.10;5.12;;;;;;;16.36;95.78;98688.09;1732948;82;21150;-71
2023/10/27 08:56:01;;;;;;;12.75;5.55;;;;;;;16.35;94.54;98690.02;1675644;84;21050;-72
2023/10/27 08:58:30;;;;;;;11.70;6.45;;;;;;;16.34;92.92;98694.45;1651445;86;21468;-72
2023/10/27 09:00:58;;;;;;;9.53;5.40;;;;;;;16.32;92.75;98687.81;1675832;84;21003;-71
2023/10/27 09:03:28;;;;;;;7.08;5.22;;;;;;;16.38;92.85;98700.52;1732761;83;21039;-71
2023/10/27 09:05:56;;;;;;;7.30;5.17;;;;;;;16.46;92.76;98691.67;1714750;83;21458;-70
2023/10/27 09:08:25;;;;;;;7.72;5.10;;;;;;;16.52;91.79;98682.81;1675546;84;21116;-70
2023/10/27 09:10:55;;;;;;;9.43;4.62;;;;;;;16.61;91.40;98684.47;1715004;82;21524;-72
2023/10/27 09:13:24;;;;;;;13.62;4.75;;;;;;;16.65;89.62;98678.66;1715053;83;21509;-71
2023/10/27 09:15:53;;;;;;;7.20;4.12;;;;;;;16.68;88.89;98683.09;1675793;86;21027;-70
2023/10/27 09:18:36;;;;;;;7.95;3.90;;;;;;;16.68;87.69;98680.33;1765669;80;21068;-71
2023/10/27 09:21:06;;;;;;;8.15;5.30;;;;;;;16.68;86.51;98680.33;1770021;81;21056;-70
2023/10/27 09:23:46;;;;;;;9.25;5.20;;;;;;;16.72;86.80;98690.28;1772692;81;21025;-71
2023/10/27 09:26:16;;;;;;;8.85;5.45;;;;;;;16.73;85.35;98687.23;1772572;81;21453;-72
2023/10/27 09:28:44;;;;;;;5.75;3.85;;;;;;;16.72;83.96;98681.98;1772451;81;21044;-72
2023/10/27 09:31:13;;;;;;;5.25;3.90;;;;;;;16.70;84.17;98689.18;1742794;81;21033;-71
2023/10/27 09:33:42;;;;;;;4.83;3.25;;;;;;;16.70;83.56;98695.27;1743028;81;21095;-72
2023/10/27 09:36:12;;;;;;;5.12;3.08;;;;;;;16.68;83.00;98685.04;1772463;81;21104;-72
2023/10/27 09:38:40;;;;;;;6.05;4.05;;;;;;;16.68;83.43;98678.95;1743629;81;21001;-74
2023/10/27 09:41:09;;;;;;;6.35;3.60;;;;;;;16.68;82.84;98665.13;1772496;81;21016;-72
2023/10/27 09:43:37;;;;;;;5.62;3.70;;;;;;;16.68;82.63;98669.83;1772406;81;21532;-73
2023/10/27 09:46:06;;;;;;;4.75;3.35;;;;;;;16.66;82.91;98671.48;1772427;81;20981;-74
2023/10/27 09:48:35;;;;;;;4.60;3.20;;;;;;;16.62;81.38;98668.98;1772539;80;21469;-73
2023/10/27 09:51:08;;;;;;;8.33;3.55;;;;;;;16.59;80.35;98670.09;1772517;81;21020;-73
2023/10/27 09:53:37;;;;;;;8.05;3.42;;;;;;;16.57;80.12;98668.16;1772680;81;21023;-73
2023/10/27 09:56:06;;;;;;;5.87;3.40;;;;;;;16.56;80.44;98666.50;1742682;81;21076;-73
2023/10/27 09:58:35;;;;;;;10.45;3.70;;;;;;;16.55;79.65;98664.84;1772382;81;21021;-73
2023/10/27 10:01:04;;;;;;;6.80;3.50;;;;;;;16.55;80.00;98656.55;1772186;81;21013;-72
2023/10/27 10:03:32;;;;;;;4.47;3.20;;;;;;;16.56;80.05;98651.30;1767672;81;21091;-73
2023/10/27 10:06:15;;;;;;;8.40;5.97;;;;;;;16.59;79.22;98658.48;1745102;82;21447;-72
2023/10/27 10:09:09;;;;;;;4.85;3.50;;;;;;;16.60;79.59;98653.22;1745241;82;21031;-72
2023/10/27 10:11:55;;;;;;;7.37;4.80;;;;;;;16.62;79.13;98652.39;1742937;82;21078;-71
2023/10/27 10:14:46;;;;;;;8.57;4.37;;;;;;;16.62;77.83;98653.77;1745387;82;21031;-72
2023/10/27 10:17:40;;;;;;;7.58;5.00;;;;;;;16.63;77.75;98644.92;1745005;81;21075;-73
2023/10/27 10:20:09;;;;;;;6.87;3.87;;;;;;;16.62;76.20;98633.59;1745149;82;21050;-72
2023/10/27 10:22:49;;;;;;;4.83;3.90;;;;;;;16.61;76.09;98641.05;1745004;82;21027;-70
2023/10/27 10:25:26;;;;;;;4.90;3.50;;;;;;;16.61;76.78;98634.69;1745029;82;21023;-71
2023/10/27 10:28:13;;;;;;;;;;;;;;;16.56;74.99;98636.92;1747556;82;21086;-72
2023/10/27 10:30:43;;;;;;;7.67;4.47;;;;;;;16.55;75.17;98639.96;1745063;82;20186;-72
2023/10/27 10:33:24;;;;;;;5.75;3.52;;;;;;;16.53;75.87;98636.65;1722499;82;21111;-72
2023/10/27 10:36:18;;;;;;;7.47;3.87;;;;;;;16.52;76.48;98637.20;1745150;81;21047;-72
2023/10/27 10:38:59;;;;;;;5.10;3.33;;;;;;;16.51;76.77;98627.25;1744979;82;21074;-71
2023/10/27 10:41:52;;;;;;;5.00;3.20;;;;;;;16.54;76.62;98619.78;1744973;82;21143;-72
2023/10/27 10:44:18;;;;;;;7.65;3.65;;;;;;;16.55;75.81;98625.58;1744975;82;21028;-73
2023/10/27 10:46:46;;;;;;;6.30;3.55;;;;;;;16.57;76.43;98631.66;1744788;82;21075;-74
2023/10/27 10:49:25;;;;;;;6.30;3.27;;;;;;;16.59;76.91;98618.39;1722422;82;21055;-72
2023/10/27 10:51:57;;;;;;;6.58;2.98;;;;;;;16.60;77.67;98610.36;1744954;82;21059;-73
2023/10/27 10:54:29;;;;;;;5.47;3.00;;;;;;;16.62;77.80;98604.00;1722349;82;21745;-71
2023/10/27 10:57:09;;;;;;;4.97;3.00;;;;;;;16.63;77.68;98610.36;1744870;82;21027;-72
2023/10/27 10:59:37;;;;;;;6.10;3.47;;;;;;;16.67;77.52;98602.62;1745146;82;21043;-71
2023/10/27 11:02:07;;;;;;;5.55;2.60;;;;;;;16.69;75.67;98604.56;1745025;82;21469;-73
2023/10/27 11:04:36;;;;;;;6.67;3.08;;;;;;;16.72;75.49;98605.94;1716435;83;21079;-73
2023/10/27 11:07:09;;;;;;;4.87;2.95;;;;;;;16.72;74.71;98604.55;1710969;83;21031;-74
2023/10/27 11:09:38;;;;;;;4.08;2.72;;;;;;;16.76;74.39;98608.41;1710987;84;21047;-73
2023/10/27 11:12:07;;;;;;;3.85;2.37;;;;;;;16.79;74.73;98604.52;1689069;84;21055;-73
2023/10/27 11:14:40;;;;;;;6.53;2.85;;;;;;;16.80;73.74;98602.59;1689041;84;21499;-74
2023/10/27 11:17:11;;;;;;;7.08;3.85;;;;;;;16.83;74.61;98597.87;1711259;83;21039;-73
2023/10/27 11:19:55;;;;;;;6.83;4.72;;;;;;;16.82;74.17;98594.01;1720944;83;21098;-73
2023/10/27 11:22:25;;;;;;;8.65;4.75;;;;;;;16.79;73.47;98593.46;1720703;83;21059;-74
2023/10/27 11:24:54;;;;;;;9.03;5.22;;;;;;;16.77;73.92;98597.06;1721077;83;21014;-73
2023/10/27 11:27:25;;;;;;;6.05;4.42;;;;;;;16.77;74.11;98592.09;1720730;83;21034;-74
2023/10/27 11:30:01;;;;;;;8.83;3.87;;;;;;;16.78;73.56;98579.36;1691660;83;21022;-76